This is the latest recevied weather packets stored in our database for station/object DB0RV-13. If no packets are shown the sender has not sent any weather packets the latest 10 day(s).
| Time | Temp. | Humidity | Pressure | Rain* | Wind** | Luminosity | Snow |
|---|---|---|---|---|---|---|---|
| 1777921201 | 17.78° C | 42% | 1011 hPa | - | - | - | - |
| 1777920903 | 17.78° C | 42% | 1011.1 hPa | - | - | - | - |
| 1777920601 | 17.78° C | 42% | 1011.2 hPa | - | - | - | - |
| 1777920302 | 17.78° C | 43% | 1011.2 hPa | - | - | - | - |
| 1777920002 | 17.78° C | 42% | 1011.3 hPa | - | - | - | - |
| 1777919702 | 17.78° C | 42% | 1011.4 hPa | - | - | - | - |
| 1777919402 | 17.78° C | 41% | 1011.4 hPa | - | - | - | - |
| 1777919102 | 17.78° C | 42% | 1011.4 hPa | - | - | - | - |
| 1777918802 | 17.78° C | 41% | 1011.4 hPa | - | - | - | - |
| 1777918501 | 18.33° C | 41% | 1011.4 hPa | - | - | - | - |
| 1777918202 | 17.78° C | 42% | 1011.5 hPa | - | - | - | - |
| 1777917901 | 18.33° C | 40% | 1011.3 hPa | - | - | - | - |
| 1777917603 | 18.33° C | 40% | 1011.3 hPa | - | - | - | - |
| 1777917303 | 18.33° C | 39% | 1011.2 hPa | - | - | - | - |
| 1777917002 | 18.33° C | 39% | 1011.4 hPa | - | - | - | - |
| 1777916702 | 18.33° C | 40% | 1011.4 hPa | - | - | - | - |
| 1777916401 | 18.89° C | 40% | 1011.3 hPa | - | - | - | - |
| 1777916102 | 18.89° C | 40% | 1011.2 hPa | - | - | - | - |
| 1777915802 | 18.89° C | 40% | 1011.2 hPa | - | - | - | - |
| 1777915502 | 19.44° C | 41% | 1011.2 hPa | - | - | - | - |
| 1777915202 | 18.89° C | 42% | 1011.2 hPa | - | - | - | - |
| 1777914902 | 18.89° C | 45% | 1011.3 hPa | - | - | - | - |
| 1777914602 | 19.44° C | 44% | 1011.1 hPa | - | - | - | - |
| 1777914302 | 19.44° C | 43% | 1011.1 hPa | - | - | - | - |
| 1777914002 | 18.89° C | 43% | 1011.2 hPa | - | - | - | - |
* Rain since midnight (hover to see other rain measurements)
** Current wind speed in m/s (hover to see current wind gust speed)